createdAt,value
2019-02-18T00:00:12.954Z,998.51
2019-02-18T00:01:13.044Z,998.54
2019-02-18T00:02:13.131Z,998.49
2019-02-18T00:03:13.219Z,998.47
2019-02-18T00:04:13.304Z,998.44
2019-02-18T00:05:13.392Z,998.47
2019-02-18T00:06:13.477Z,998.45
2019-02-18T00:07:14.807Z,998.45
2019-02-18T00:08:13.651Z,998.42
2019-02-18T00:09:13.736Z,998.44
2019-02-18T00:10:13.822Z,998.51
2019-02-18T00:11:13.907Z,998.52
2019-02-18T00:12:14.001Z,998.50
2019-02-18T00:13:14.084Z,998.47
2019-02-18T00:14:14.174Z,998.48
2019-02-18T00:15:14.262Z,998.49
2019-02-18T00:16:14.342Z,998.43
2019-02-18T00:17:14.429Z,998.48
2019-02-18T00:18:14.517Z,998.47
2019-02-18T00:19:14.606Z,998.47
2019-02-18T00:20:14.698Z,998.43
2019-02-18T00:21:14.777Z,998.47
2019-02-18T00:22:14.863Z,998.44
2019-02-18T00:23:14.952Z,998.42
2019-02-18T00:24:15.036Z,998.40
2019-02-18T00:25:15.120Z,998.38
2019-02-18T00:26:15.207Z,998.39
2019-02-18T00:27:15.293Z,998.38
2019-02-18T00:28:15.382Z,998.34
2019-02-18T00:29:15.464Z,998.34
2019-02-18T00:30:15.570Z,998.37
2019-02-18T00:31:15.657Z,998.38
2019-02-18T00:32:15.743Z,998.38
2019-02-18T00:33:15.830Z,998.36
2019-02-18T00:34:15.914Z,998.40
2019-02-18T00:35:16.000Z,998.38
2019-02-18T00:36:16.092Z,998.43
2019-02-18T00:37:24.144Z,998.44
2019-02-18T00:38:16.265Z,998.41
2019-02-18T00:39:16.350Z,998.43
2019-02-18T00:40:16.438Z,998.39
2019-02-18T00:41:16.527Z,998.42
2019-02-18T00:42:16.611Z,998.40
2019-02-18T00:43:16.694Z,998.40
2019-02-18T00:44:16.780Z,998.38
2019-02-18T00:45:16.866Z,998.38
2019-02-18T00:46:16.955Z,998.41
2019-02-18T00:47:17.038Z,998.43
2019-02-18T00:48:17.125Z,998.42
2019-02-18T00:49:17.210Z,998.44
2019-02-18T00:50:17.301Z,998.41
2019-02-18T00:51:17.383Z,998.43
2019-02-18T00:52:17.471Z,998.43
2019-02-18T00:53:17.556Z,998.38
2019-02-18T00:54:17.707Z,998.38
2019-02-18T00:55:17.744Z,998.40
2019-02-18T00:56:17.812Z,998.38
2019-02-18T00:57:17.890Z,998.40
2019-02-18T00:58:17.983Z,998.36
2019-02-18T00:59:18.090Z,998.36
2019-02-18T01:00:18.148Z,998.35
2019-02-18T01:01:18.235Z,998.37
2019-02-18T01:02:18.318Z,998.35
2019-02-18T01:03:18.401Z,998.32
2019-02-18T01:04:18.493Z,998.35
2019-02-18T01:05:18.577Z,998.36
2019-02-18T01:06:18.666Z,998.37
2019-02-18T01:07:18.750Z,998.35
2019-02-18T01:08:18.833Z,998.32
2019-02-18T01:09:18.921Z,998.38
2019-02-18T01:10:19.009Z,998.36
2019-02-18T01:11:19.097Z,998.36
2019-02-18T01:12:19.181Z,998.37
2019-02-18T01:13:19.269Z,998.36
2019-02-18T01:14:19.348Z,998.32
2019-02-18T01:15:19.426Z,998.35
2019-02-18T01:16:19.508Z,998.37
2019-02-18T01:17:19.596Z,998.32
2019-02-18T01:18:19.682Z,998.39
2019-02-18T01:19:19.845Z,998.36
2019-02-18T01:20:19.856Z,998.33
2019-02-18T01:21:19.942Z,998.31
2019-02-18T01:22:20.090Z,998.32
2019-02-18T01:23:20.112Z,998.29
2019-02-18T01:24:20.198Z,998.28
2019-02-18T01:25:20.284Z,998.28
2019-02-18T01:26:20.369Z,998.27
2019-02-18T01:27:20.449Z,998.29
2019-02-18T01:28:20.541Z,998.27
2019-02-18T01:29:20.624Z,998.31
2019-02-18T01:30:20.715Z,998.33
2019-02-18T01:31:20.800Z,998.28
2019-02-18T01:32:20.886Z,998.27
2019-02-18T01:33:20.989Z,998.27
2019-02-18T01:34:21.059Z,998.26
2019-02-18T01:35:21.149Z,998.19
2019-02-18T01:36:23.073Z,998.19
2019-02-18T01:37:21.321Z,998.19
2019-02-18T01:38:21.405Z,998.13
2019-02-18T01:39:21.494Z,998.17
2019-02-18T01:40:21.577Z,998.14
2019-02-18T01:41:21.664Z,998.15
2019-02-18T01:42:21.749Z,998.14
2019-02-18T01:43:21.837Z,998.14
2019-02-18T01:44:21.924Z,998.13
2019-02-18T01:45:22.009Z,998.13
2019-02-18T01:46:22.107Z,998.15
2019-02-18T01:47:22.181Z,998.11
2019-02-18T01:48:22.267Z,998.09
2019-02-18T01:49:22.355Z,998.11
2019-02-18T01:50:22.437Z,998.08
2019-02-18T01:51:22.525Z,998.11
2019-02-18T01:52:22.611Z,998.05
2019-02-18T01:53:22.711Z,998.06
2019-02-18T01:54:22.780Z,998.07
2019-02-18T01:55:22.866Z,998.02
2019-02-18T01:56:22.954Z,998.04
2019-02-18T01:57:23.035Z,998.06
2019-02-18T01:58:23.129Z,998.03
2019-02-18T01:59:23.213Z,997.98
2019-02-18T02:00:23.299Z,998.01
2019-02-18T02:01:23.385Z,998.02
2019-02-18T02:02:23.470Z,998.03
2019-02-18T02:03:25.148Z,998.01
2019-02-18T02:04:23.659Z,998.00
2019-02-18T02:05:23.745Z,998.02
2019-02-18T02:06:23.832Z,998.02
2019-02-18T02:07:23.918Z,998.03
2019-02-18T02:08:24.011Z,998.00
2019-02-18T02:09:24.091Z,997.94
2019-02-18T02:10:24.191Z,998.00
2019-02-18T02:11:24.271Z,997.98
2019-02-18T02:12:24.350Z,997.98
2019-02-18T02:13:24.437Z,997.97
2019-02-18T02:14:24.522Z,997.98
2019-02-18T02:15:24.615Z,997.96
2019-02-18T02:16:24.705Z,997.98
2019-02-18T02:17:24.787Z,997.98
2019-02-18T02:18:24.875Z,997.98
2019-02-18T02:19:24.959Z,997.99
2019-02-18T02:20:25.045Z,997.95
2019-02-18T02:21:25.132Z,997.98
2019-02-18T02:22:25.218Z,997.95
2019-02-18T02:23:25.305Z,997.94
2019-02-18T02:24:25.393Z,997.94
2019-02-18T02:25:25.467Z,997.91
2019-02-18T02:26:25.568Z,997.94
2019-02-18T02:27:25.646Z,997.93
2019-02-18T02:28:25.732Z,997.91
2019-02-18T02:29:25.818Z,997.94
2019-02-18T02:30:25.903Z,997.93
2019-02-18T02:31:25.991Z,997.92
2019-02-18T02:32:26.079Z,997.99
2019-02-18T02:33:26.165Z,997.95
2019-02-18T02:34:26.248Z,997.99
2019-02-18T02:35:26.354Z,997.98
2019-02-18T02:36:26.421Z,997.98
2019-02-18T02:37:26.509Z,997.98
2019-02-18T02:38:26.600Z,997.94
2019-02-18T02:39:26.679Z,997.95
2019-02-18T02:40:26.764Z,997.91
2019-02-18T02:41:26.853Z,997.94
2019-02-18T02:42:26.943Z,997.92
2019-02-18T02:43:27.029Z,997.94
2019-02-18T02:44:27.114Z,997.91
2019-02-18T02:45:27.199Z,997.91
2019-02-18T02:46:27.279Z,997.90
2019-02-18T02:47:27.372Z,997.92
2019-02-18T02:48:27.455Z,997.95
2019-02-18T02:49:27.546Z,997.94
2019-02-18T02:50:27.632Z,997.98
2019-02-18T02:51:27.716Z,997.95
2019-02-18T02:52:27.800Z,997.97
2019-02-18T02:53:27.890Z,997.95
2019-02-18T02:54:27.974Z,997.96
2019-02-18T02:55:28.060Z,997.98
2019-02-18T02:56:28.151Z,997.99
2019-02-18T02:57:28.300Z,997.96
2019-02-18T02:58:28.320Z,997.98
2019-02-18T02:59:28.404Z,997.95
2019-02-18T03:00:28.492Z,997.94
2019-02-18T03:01:28.573Z,997.90
2019-02-18T03:02:28.663Z,997.90
2019-02-18T03:03:28.748Z,997.89
2019-02-18T03:04:28.844Z,997.88
2019-02-18T03:05:28.931Z,997.85
2019-02-18T03:06:29.005Z,997.84
2019-02-18T03:07:29.093Z,997.83
2019-02-18T03:08:29.182Z,997.84
2019-02-18T03:09:29.263Z,997.83
2019-02-18T03:10:29.351Z,997.83
2019-02-18T03:11:29.433Z,997.82
2019-02-18T03:12:29.522Z,997.81
2019-02-18T03:13:29.614Z,997.81
2019-02-18T03:14:29.693Z,997.78
2019-02-18T03:15:29.780Z,997.79
2019-02-18T03:16:29.863Z,997.77
2019-02-18T03:17:29.948Z,997.80
2019-02-18T03:18:30.031Z,997.81
2019-02-18T03:19:30.121Z,997.82
2019-02-18T03:20:30.204Z,997.79
2019-02-18T03:21:30.292Z,997.81
2019-02-18T03:22:30.384Z,997.84
2019-02-18T03:23:30.468Z,997.85
2019-02-18T03:24:30.553Z,997.82
2019-02-18T03:25:30.634Z,997.84
2019-02-18T03:26:30.724Z,997.82
2019-02-18T03:27:30.809Z,997.88
2019-02-18T03:28:30.897Z,997.85
2019-02-18T03:29:30.973Z,997.81
2019-02-18T03:30:31.062Z,997.81
2019-02-18T03:31:31.145Z,997.83
2019-02-18T03:32:31.235Z,997.84
2019-02-18T03:33:31.317Z,997.79
2019-02-18T03:34:31.400Z,997.82
2019-02-18T03:35:31.485Z,997.81
2019-02-18T03:36:31.574Z,997.82
2019-02-18T03:37:31.655Z,997.82
2019-02-18T03:38:32.143Z,997.83
2019-02-18T03:39:31.825Z,997.83
2019-02-18T03:40:31.912Z,997.86
2019-02-18T03:41:31.999Z,997.86
2019-02-18T03:42:32.086Z,997.82
2019-02-18T03:43:32.185Z,997.81
2019-02-18T03:44:32.267Z,997.83
2019-02-18T03:45:32.347Z,997.84
2019-02-18T03:46:32.429Z,997.84
2019-02-18T03:47:32.512Z,997.84
2019-02-18T03:48:32.600Z,997.84
2019-02-18T03:49:32.706Z,997.88
2019-02-18T03:50:32.762Z,997.89
2019-02-18T03:51:32.851Z,997.87
2019-02-18T03:52:32.925Z,997.86
2019-02-18T03:53:33.015Z,997.86
2019-02-18T03:54:33.100Z,997.86
2019-02-18T03:55:33.188Z,997.88
2019-02-18T03:56:33.274Z,997.87
2019-02-18T03:57:33.359Z,997.89
2019-02-18T03:58:33.445Z,997.86
2019-02-18T03:59:33.531Z,997.84
2019-02-18T04:00:33.617Z,997.86
2019-02-18T04:01:33.702Z,997.85
2019-02-18T04:02:33.788Z,997.86
2019-02-18T04:03:33.879Z,997.88
2019-02-18T04:04:33.991Z,997.88
2019-02-18T04:05:34.076Z,997.87
2019-02-18T04:06:34.167Z,997.87
2019-02-18T04:07:34.248Z,997.82
2019-02-18T04:08:42.311Z,997.82
2019-02-18T04:09:34.420Z,997.86
2019-02-18T04:10:34.505Z,997.82
2019-02-18T04:11:34.593Z,997.85
2019-02-18T04:12:34.679Z,997.88
2019-02-18T04:13:34.760Z,997.85
2019-02-18T04:14:34.849Z,997.81
2019-02-18T04:15:34.933Z,997.83
2019-02-18T04:16:35.016Z,997.81
2019-02-18T04:17:35.101Z,997.82
2019-02-18T04:18:35.189Z,997.79
2019-02-18T04:19:35.271Z,997.79
2019-02-18T04:20:35.359Z,997.79
2019-02-18T04:21:35.445Z,997.81
2019-02-18T04:22:35.533Z,997.79
2019-02-18T04:23:35.623Z,997.79
2019-02-18T04:24:35.701Z,997.78
2019-02-18T04:25:35.789Z,997.78
2019-02-18T04:26:35.874Z,997.79
2019-02-18T04:27:35.960Z,997.80
2019-02-18T04:28:36.047Z,997.77
2019-02-18T04:29:36.130Z,997.80
2019-02-18T04:30:36.224Z,997.72
2019-02-18T04:31:36.309Z,997.72
2019-02-18T04:32:36.393Z,997.77
2019-02-18T04:33:36.479Z,997.75
2019-02-18T04:34:36.565Z,997.76
2019-02-18T04:35:36.652Z,997.76
2019-02-18T04:36:36.736Z,997.72
2019-02-18T04:37:36.830Z,997.75
2019-02-18T04:38:36.909Z,997.77
2019-02-18T04:39:37.003Z,997.75
2019-02-18T04:40:37.081Z,997.75
2019-02-18T04:41:37.165Z,997.71
2019-02-18T04:42:37.251Z,997.74
2019-02-18T04:43:37.335Z,997.76
2019-02-18T04:44:37.422Z,997.73
2019-02-18T04:45:37.511Z,997.77
2019-02-18T04:46:37.639Z,997.77
2019-02-18T04:47:37.715Z,997.77
2019-02-18T04:48:37.816Z,997.73
2019-02-18T04:49:37.903Z,997.78
2019-02-18T04:50:37.985Z,997.73
2019-02-18T04:51:38.076Z,997.75
2019-02-18T04:52:38.184Z,997.77
2019-02-18T04:53:38.247Z,997.78
2019-02-18T04:54:38.335Z,997.78
2019-02-18T04:55:38.422Z,997.73
2019-02-18T04:56:38.509Z,997.70
2019-02-18T04:57:38.595Z,997.73
2019-02-18T04:58:38.681Z,997.69
2019-02-18T04:59:38.766Z,997.68
2019-02-18T05:00:38.854Z,997.67
2019-02-18T05:01:38.939Z,997.67
2019-02-18T05:02:39.026Z,997.67
2019-02-18T05:03:39.118Z,997.72
2019-02-18T05:04:39.198Z,997.68
2019-02-18T05:05:39.300Z,997.71
2019-02-18T05:06:39.393Z,997.69
2019-02-18T05:07:39.471Z,997.71
2019-02-18T05:08:39.554Z,997.72
2019-02-18T05:09:40.082Z,997.68
2019-02-18T05:10:39.749Z,997.72
2019-02-18T05:11:39.836Z,997.71
2019-02-18T05:12:39.929Z,997.67
2019-02-18T05:13:40.006Z,997.67
2019-02-18T05:14:40.085Z,997.71
2019-02-18T05:15:40.610Z,997.69
2019-02-18T05:16:40.268Z,997.68
2019-02-18T05:17:40.351Z,997.66
2019-02-18T05:18:40.441Z,997.69
2019-02-18T05:19:40.527Z,997.66
2019-02-18T05:20:40.620Z,997.71
2019-02-18T05:21:40.698Z,997.70
2019-02-18T05:22:40.788Z,997.68
2019-02-18T05:23:40.861Z,997.68
2019-02-18T05:24:40.973Z,997.62
2019-02-18T05:25:41.047Z,997.60
2019-02-18T05:26:41.127Z,997.65
2019-02-18T05:27:41.213Z,997.58
2019-02-18T05:28:41.299Z,997.60
2019-02-18T05:29:41.391Z,997.60
2019-02-18T05:30:41.467Z,997.60
2019-02-18T05:31:41.550Z,997.55
2019-02-18T05:32:41.692Z,997.62
2019-02-18T05:33:41.727Z,997.61
2019-02-18T05:34:41.824Z,997.52
2019-02-18T05:35:41.928Z,997.56
2019-02-18T05:36:42.077Z,997.55
2019-02-18T05:37:42.106Z,997.60
2019-02-18T05:38:42.153Z,997.58
2019-02-18T05:39:42.225Z,997.57
2019-02-18T05:40:42.321Z,997.53
2019-02-18T05:41:42.500Z,997.51
2019-02-18T05:42:42.432Z,997.51
2019-02-18T05:43:42.521Z,997.55
2019-02-18T05:44:42.599Z,997.55
2019-02-18T05:45:42.670Z,997.53
2019-02-18T05:46:42.766Z,997.50
2019-02-18T05:47:42.849Z,997.48
2019-02-18T05:48:42.932Z,997.53
2019-02-18T05:49:43.020Z,997.49
2019-02-18T05:50:43.166Z,997.52
2019-02-18T05:51:43.215Z,997.56
2019-02-18T05:52:43.302Z,997.52
2019-02-18T05:53:43.395Z,997.57
2019-02-18T05:54:43.480Z,997.56
2019-02-18T05:55:43.566Z,997.60
2019-02-18T05:56:43.652Z,997.61
2019-02-18T05:57:43.739Z,997.56
2019-02-18T05:58:43.825Z,997.61
2019-02-18T05:59:43.910Z,997.61
2019-02-18T06:00:43.998Z,997.61
2019-02-18T06:01:44.092Z,997.61
2019-02-18T06:02:44.169Z,997.56
2019-02-18T06:03:44.256Z,997.57
2019-02-18T06:04:44.339Z,997.62
2019-02-18T06:05:44.425Z,997.59
2019-02-18T06:06:44.511Z,997.64
2019-02-18T06:07:44.613Z,997.62
2019-02-18T06:08:44.689Z,997.62
2019-02-18T06:09:44.775Z,997.66
2019-02-18T06:10:44.865Z,997.66
2019-02-18T06:11:44.946Z,997.66
2019-02-18T06:12:45.034Z,997.58
2019-02-18T06:13:45.118Z,997.63
2019-02-18T06:14:45.205Z,997.65
2019-02-18T06:15:45.290Z,997.67
2019-02-18T06:16:45.381Z,997.65
2019-02-18T06:17:45.463Z,997.68
2019-02-18T06:18:45.552Z,997.64
2019-02-18T06:19:45.638Z,997.68
2019-02-18T06:20:45.728Z,997.70
2019-02-18T06:21:45.814Z,997.70
2019-02-18T06:22:45.897Z,997.70
2019-02-18T06:23:45.983Z,997.70
2019-02-18T06:24:46.065Z,997.70
2019-02-18T06:25:46.154Z,997.66
2019-02-18T06:26:46.237Z,997.72
2019-02-18T06:27:46.327Z,997.74
2019-02-18T06:28:46.410Z,997.74
2019-02-18T06:29:46.497Z,997.74
2019-02-18T06:30:46.582Z,997.74
2019-02-18T06:31:46.672Z,997.73
2019-02-18T06:32:46.759Z,997.79
2019-02-18T06:33:46.843Z,997.82
2019-02-18T06:34:46.934Z,997.85
2019-02-18T06:35:47.059Z,997.81
2019-02-18T06:36:47.100Z,997.81
2019-02-18T06:37:47.195Z,997.82
2019-02-18T06:38:47.273Z,997.81
2019-02-18T06:39:47.364Z,997.80
2019-02-18T06:40:47.444Z,997.83
2019-02-18T06:41:47.531Z,997.82
2019-02-18T06:42:47.622Z,997.89
2019-02-18T06:43:47.701Z,997.84
2019-02-18T06:44:47.785Z,997.86
2019-02-18T06:45:47.872Z,997.86
2019-02-18T06:46:48.010Z,997.85
2019-02-18T06:47:48.038Z,997.83
2019-02-18T06:48:48.125Z,997.87
2019-02-18T06:49:48.215Z,997.91
2019-02-18T06:50:48.299Z,997.88
2019-02-18T06:51:48.387Z,997.88
2019-02-18T06:52:48.473Z,997.92
2019-02-18T06:53:48.562Z,997.90
2019-02-18T06:54:48.635Z,997.88
2019-02-18T06:55:48.742Z,997.91
2019-02-18T06:56:48.815Z,997.88
2019-02-18T06:57:48.897Z,997.90
2019-02-18T06:58:48.986Z,997.90
2019-02-18T06:59:49.075Z,997.93
2019-02-18T07:00:49.180Z,997.93
2019-02-18T07:01:49.274Z,997.91
2019-02-18T07:02:49.361Z,997.93
2019-02-18T07:03:49.451Z,998.00
2019-02-18T07:04:49.536Z,997.98
2019-02-18T07:05:49.622Z,997.99
2019-02-18T07:06:49.721Z,997.99
2019-02-18T07:07:49.801Z,997.99
2019-02-18T07:08:49.887Z,997.99
2019-02-18T07:09:51.561Z,998.01
2019-02-18T07:10:50.066Z,998.02
2019-02-18T07:11:50.152Z,997.99
2019-02-18T07:12:50.238Z,998.00
2019-02-18T07:13:50.324Z,997.96
2019-02-18T07:14:50.410Z,997.95
2019-02-18T07:15:50.493Z,997.98
2019-02-18T07:16:50.579Z,997.97
2019-02-18T07:17:50.665Z,997.98
2019-02-18T07:18:50.750Z,998.02
2019-02-18T07:19:50.833Z,997.97
2019-02-18T07:20:50.922Z,997.97
2019-02-18T07:21:51.009Z,997.97
2019-02-18T07:22:51.122Z,997.94
2019-02-18T07:23:51.208Z,997.94
2019-02-18T07:24:51.296Z,997.95
2019-02-18T07:25:51.377Z,997.93
2019-02-18T07:26:51.468Z,997.92
2019-02-18T07:27:51.551Z,997.94
2019-02-18T07:28:51.640Z,997.96
2019-02-18T07:29:51.725Z,997.96
2019-02-18T07:30:51.813Z,997.93
2019-02-18T07:31:51.909Z,997.93
2019-02-18T07:32:51.982Z,997.98
2019-02-18T07:33:52.071Z,997.97
2019-02-18T07:34:52.157Z,997.95
2019-02-18T07:35:52.246Z,997.94
2019-02-18T07:36:52.330Z,997.90
2019-02-18T07:37:52.415Z,997.91
2019-02-18T07:38:52.505Z,997.90
2019-02-18T07:40:01.225Z,997.91
2019-02-18T07:40:52.671Z,997.91
2019-02-18T07:41:52.755Z,997.87
2019-02-18T07:42:52.844Z,997.89
2019-02-18T07:43:52.929Z,997.94
2019-02-18T07:44:53.016Z,997.93
2019-02-18T07:45:53.105Z,997.93
2019-02-18T07:46:53.190Z,997.92
2019-02-18T07:47:53.279Z,997.84
2019-02-18T07:48:53.361Z,997.88
2019-02-18T07:49:53.454Z,997.85
2019-02-18T07:50:53.539Z,997.88
2019-02-18T07:51:53.626Z,997.85
2019-02-18T07:52:53.712Z,997.87
2019-02-18T07:53:53.801Z,997.88
2019-02-18T07:54:53.887Z,997.89
2019-02-18T07:55:53.980Z,997.86
2019-02-18T07:56:54.064Z,997.93
2019-02-18T07:57:54.150Z,997.91
2019-02-18T07:58:54.238Z,997.92
2019-02-18T07:59:54.324Z,997.93
2019-02-18T08:00:54.430Z,997.91
2019-02-18T08:01:54.499Z,997.89
2019-02-18T08:02:54.584Z,997.91
2019-02-18T08:03:54.676Z,997.91
2019-02-18T08:04:54.757Z,997.97
2019-02-18T08:05:54.846Z,997.94
2019-02-18T08:06:54.935Z,997.93
2019-02-18T08:07:55.037Z,997.95
2019-02-18T08:08:55.124Z,997.90
2019-02-18T08:09:55.213Z,997.90
2019-02-18T08:10:55.302Z,997.89
2019-02-18T08:11:55.387Z,997.89
2019-02-18T08:12:55.475Z,997.93
2019-02-18T08:13:55.563Z,997.94
2019-02-18T08:14:55.649Z,997.90
2019-02-18T08:15:55.735Z,997.91
2019-02-18T08:16:55.826Z,997.92
2019-02-18T08:17:55.912Z,997.89
2019-02-18T08:18:55.988Z,997.89
2019-02-18T08:19:56.078Z,997.89
2019-02-18T08:20:56.166Z,997.90
2019-02-18T08:21:56.253Z,997.89
2019-02-18T08:22:56.340Z,997.91
2019-02-18T08:24:00.027Z,997.89
2019-02-18T08:24:56.514Z,997.93
2019-02-18T08:25:56.605Z,997.89
2019-02-18T08:26:56.702Z,997.91
2019-02-18T08:27:56.777Z,997.87
2019-02-18T08:28:56.866Z,997.88
2019-02-18T08:29:56.953Z,997.87
2019-02-18T08:30:57.041Z,997.89
2019-02-18T08:31:57.126Z,997.89
2019-02-18T08:32:57.211Z,997.86
2019-02-18T08:33:57.298Z,997.91
2019-02-18T08:34:57.384Z,997.86
2019-02-18T08:35:57.472Z,997.85
2019-02-18T08:36:57.565Z,997.90
2019-02-18T08:37:57.650Z,997.89
2019-02-18T08:38:57.735Z,997.88
2019-02-18T08:39:57.825Z,997.94
2019-02-18T08:40:57.910Z,997.94
2019-02-18T08:41:57.997Z,997.89
2019-02-18T08:42:58.082Z,997.94
2019-02-18T08:43:58.173Z,997.92
2019-02-18T08:44:58.260Z,997.93
2019-02-18T08:45:58.344Z,997.94
2019-02-18T08:46:58.432Z,997.93
2019-02-18T08:47:58.520Z,997.97
2019-02-18T08:48:58.608Z,997.93
2019-02-18T08:49:58.697Z,997.93
2019-02-18T08:50:58.779Z,997.90
2019-02-18T08:51:58.873Z,997.89
2019-02-18T08:52:58.960Z,997.84
2019-02-18T08:53:59.054Z,997.87
2019-02-18T08:54:59.139Z,997.88
2019-02-18T08:55:59.227Z,997.88
2019-02-18T08:56:59.317Z,997.88
2019-02-18T08:57:59.405Z,997.84
2019-02-18T08:58:59.490Z,997.85
2019-02-18T08:59:59.582Z,997.91
2019-02-18T09:01:02.566Z,997.84
2019-02-18T09:02:08.424Z,997.84
2019-02-18T09:02:59.887Z,997.86
2019-02-18T09:03:59.979Z,997.85
2019-02-18T09:05:00.068Z,997.87
2019-02-18T09:06:00.154Z,997.83
2019-02-18T09:07:00.240Z,997.81
2019-02-18T09:08:00.330Z,997.80
2019-02-18T09:09:00.421Z,997.79
2019-02-18T09:10:00.528Z,997.80
2019-02-18T09:11:00.613Z,997.75
2019-02-18T09:12:00.703Z,997.78
2019-02-18T09:13:00.788Z,997.72
2019-02-18T09:14:00.876Z,997.79
2019-02-18T09:15:00.975Z,997.80
2019-02-18T09:16:01.052Z,997.72
2019-02-18T09:17:01.141Z,997.71
2019-02-18T09:18:01.229Z,997.68
2019-02-18T09:19:01.318Z,997.69
2019-02-18T09:20:01.405Z,997.64
2019-02-18T09:21:01.494Z,997.64
2019-02-18T09:22:01.588Z,997.64
2019-02-18T09:23:01.684Z,997.67
2019-02-18T09:24:01.768Z,997.61
2019-02-18T09:25:01.858Z,997.60
2019-02-18T09:26:01.965Z,997.58
2019-02-18T09:27:02.076Z,997.63
2019-02-18T09:28:02.128Z,997.63
2019-02-18T09:29:02.212Z,997.59
2019-02-18T09:30:02.302Z,997.59
2019-02-18T09:31:02.392Z,997.57
2019-02-18T09:32:02.493Z,997.58
2019-02-18T09:33:02.577Z,997.58
2019-02-18T09:34:02.662Z,997.59
2019-02-18T09:35:02.745Z,997.61
2019-02-18T09:36:02.837Z,997.57
2019-02-18T09:37:02.932Z,997.62
2019-02-18T09:38:03.019Z,997.62
2019-02-18T09:39:03.105Z,997.63
2019-02-18T09:40:03.197Z,997.58
2019-02-18T09:41:03.309Z,997.60
2019-02-18T09:42:03.538Z,997.58
2019-02-18T09:43:03.489Z,997.55
2019-02-18T09:44:03.598Z,997.54
2019-02-18T09:45:03.715Z,997.59
2019-02-18T09:46:03.910Z,997.57
2019-02-18T09:47:03.984Z,997.57
2019-02-18T09:48:04.393Z,997.58
2019-02-18T09:49:04.262Z,997.54
2019-02-18T09:50:04.321Z,997.52
2019-02-18T09:51:04.421Z,997.52
2019-02-18T09:52:04.246Z,997.53
2019-02-18T09:53:04.469Z,997.55
2019-02-18T09:54:04.926Z,997.55
2019-02-18T09:55:04.663Z,997.50
2019-02-18T09:56:04.629Z,997.50
2019-02-18T09:57:04.837Z,997.46
2019-02-18T09:58:05.113Z,997.45
2019-02-18T09:59:05.020Z,997.35
2019-02-18T10:00:05.177Z,997.34
2019-02-18T10:01:05.356Z,997.32
2019-02-18T10:02:05.343Z,997.34
2019-02-18T10:03:05.499Z,997.32
2019-02-18T10:04:05.699Z,997.33
2019-02-18T10:05:05.717Z,997.30
2019-02-18T10:06:05.744Z,997.30
2019-02-18T10:07:05.901Z,997.32
2019-02-18T10:08:06.014Z,997.31
2019-02-18T10:09:06.036Z,997.33
2019-02-18T10:10:06.126Z,997.33
2019-02-18T10:11:06.115Z,997.28
2019-02-18T10:12:06.228Z,997.23
2019-02-18T10:13:06.311Z,997.24
2019-02-18T10:14:06.395Z,997.25
2019-02-18T10:15:06.488Z,997.23
2019-02-18T10:16:06.571Z,997.21
2019-02-18T10:17:06.678Z,997.18
2019-02-18T10:18:06.765Z,997.13
2019-02-18T10:19:06.850Z,997.11
2019-02-18T10:20:06.938Z,997.13
2019-02-18T10:21:07.027Z,997.08
2019-02-18T10:22:07.127Z,997.08
2019-02-18T10:23:07.204Z,997.11
2019-02-18T10:24:07.299Z,997.14
2019-02-18T10:25:07.418Z,997.12
2019-02-18T10:26:07.470Z,997.10
2019-02-18T10:27:07.562Z,997.12
2019-02-18T10:28:07.654Z,997.12
2019-02-18T10:29:07.744Z,997.10
2019-02-18T10:30:07.821Z,997.10
2019-02-18T10:31:07.965Z,997.07
2019-02-18T10:32:07.988Z,997.10
2019-02-18T10:33:08.254Z,997.11
2019-02-18T10:34:08.224Z,997.06
2019-02-18T10:35:08.309Z,997.04
2019-02-18T10:36:08.398Z,996.96
2019-02-18T10:37:08.492Z,997.02
2019-02-18T10:38:08.571Z,997.00
2019-02-18T10:39:08.671Z,997.03
2019-02-18T10:40:08.737Z,997.00
2019-02-18T10:41:08.829Z,996.99
2019-02-18T10:42:08.972Z,996.97
2019-02-18T10:43:09.015Z,996.96
2019-02-18T10:44:09.079Z,996.96
2019-02-18T10:45:09.176Z,996.92
2019-02-18T10:46:09.268Z,996.91
2019-02-18T10:47:09.351Z,996.85
2019-02-18T10:48:09.437Z,996.88
2019-02-18T10:49:19.427Z,996.85
2019-02-18T10:50:09.609Z,996.82
2019-02-18T10:51:09.696Z,996.86
2019-02-18T10:52:09.782Z,996.82
2019-02-18T10:53:09.866Z,996.76
2019-02-18T10:54:09.963Z,996.80
2019-02-18T10:55:10.043Z,996.80
2019-02-18T10:56:10.127Z,996.81
2019-02-18T10:57:10.231Z,996.76
2019-02-18T10:58:10.320Z,996.78
2019-02-18T10:59:10.402Z,996.81
2019-02-18T11:00:10.495Z,996.81
2019-02-18T11:01:10.571Z,996.83
2019-02-18T11:02:10.665Z,996.85
2019-02-18T11:03:10.755Z,996.77
2019-02-18T11:04:10.836Z,996.76
2019-02-18T11:05:10.931Z,996.75
2019-02-18T11:06:11.015Z,996.77
2019-02-18T11:07:11.100Z,996.76
2019-02-18T11:08:11.298Z,996.76
2019-02-18T11:09:11.291Z,996.75
2019-02-18T11:10:11.382Z,996.63
2019-02-18T11:11:17.112Z,996.62
2019-02-18T11:12:11.556Z,996.59
2019-02-18T11:13:11.645Z,996.54
2019-02-18T11:14:11.731Z,996.52
2019-02-18T11:15:11.826Z,996.49
2019-02-18T11:16:11.916Z,996.50
2019-02-18T11:17:12.013Z,996.51
2019-02-18T11:18:12.093Z,996.44
2019-02-18T11:19:12.189Z,996.47
2019-02-18T11:20:12.275Z,996.44
2019-02-18T11:21:12.365Z,996.39
2019-02-18T11:22:12.446Z,996.39
2019-02-18T11:23:12.539Z,996.37
2019-02-18T11:24:12.616Z,996.32
2019-02-18T11:25:12.710Z,996.31
2019-02-18T11:26:12.882Z,996.31
2019-02-18T11:27:12.891Z,996.29
2019-02-18T11:28:12.982Z,996.31
2019-02-18T11:29:13.067Z,996.30
2019-02-18T11:30:13.164Z,996.30
2019-02-18T11:31:13.249Z,996.23
2019-02-18T11:32:13.328Z,996.26
2019-02-18T11:33:13.424Z,996.21
2019-02-18T11:34:13.516Z,996.19
2019-02-18T11:35:13.604Z,996.22
2019-02-18T11:36:13.698Z,996.22
2019-02-18T11:37:13.914Z,996.21
2019-02-18T11:38:13.872Z,996.20
2019-02-18T11:39:13.961Z,996.16
2019-02-18T11:40:14.052Z,996.13
2019-02-18T11:41:14.145Z,996.12
2019-02-18T11:42:14.239Z,996.08
2019-02-18T11:43:14.324Z,996.05
2019-02-18T11:44:14.416Z,996.06
2019-02-18T11:45:14.505Z,996.03
2019-02-18T11:46:14.603Z,995.99
2019-02-18T11:47:14.720Z,995.98
2019-02-18T11:48:14.815Z,995.98
2019-02-18T11:49:14.924Z,995.94
2019-02-18T11:50:14.998Z,995.99
2019-02-18T11:51:15.079Z,995.97
2019-02-18T11:52:15.171Z,995.96
2019-02-18T11:53:15.262Z,995.93
2019-02-18T11:54:15.357Z,995.91
2019-02-18T11:55:15.490Z,995.93
2019-02-18T11:56:15.541Z,995.90
2019-02-18T11:57:15.641Z,995.91
2019-02-18T11:58:15.734Z,995.90
2019-02-18T11:59:23.981Z,995.88
2019-02-18T12:00:15.907Z,995.87
2019-02-18T12:01:16.004Z,995.86
2019-02-18T12:02:16.087Z,995.81
2019-02-18T12:03:16.200Z,995.83
2019-02-18T12:04:16.275Z,995.78
2019-02-18T12:05:16.367Z,995.75
2019-02-18T12:06:16.461Z,995.74
2019-02-18T12:07:16.553Z,995.76
2019-02-18T12:08:16.637Z,995.77
2019-02-18T12:09:17.844Z,995.76
2019-02-18T12:10:16.821Z,995.75
2019-02-18T12:11:16.918Z,995.75
2019-02-18T12:12:17.019Z,995.71
2019-02-18T12:13:17.098Z,995.73
2019-02-18T12:14:17.187Z,995.72
2019-02-18T12:15:17.295Z,995.67
2019-02-18T12:16:17.365Z,995.72
2019-02-18T12:17:20.544Z,995.67
2019-02-18T12:18:17.546Z,995.67
2019-02-18T12:19:17.685Z,995.71
2019-02-18T12:20:17.771Z,995.64
2019-02-18T12:21:17.858Z,995.58
2019-02-18T12:22:17.956Z,995.60
2019-02-18T12:23:18.029Z,995.60
2019-02-18T12:24:18.131Z,995.59
2019-02-18T12:25:18.221Z,995.58
2019-02-18T12:26:18.299Z,995.59
2019-02-18T12:27:18.414Z,995.60
2019-02-18T12:28:18.489Z,995.51
2019-02-18T12:29:26.289Z,995.51